PAJN/JNU METAR and TAF weather

Enter ICAO airport designator
Station Type Date Time Source
PAJN METAR 2019/06/17 04:53 UTC NOAA

PAJN 170453Z 10010KT 10SM -RA FEW005 SCT024 OVC048 13/12 A2989 RMK AO2 SLP121 VIS LWR E-S P0002 T01280122


Station Type Date Time Source
PAJN Decoded METAR 2019/06/17 04:53 UTC NOAA

JUNEAU INTERNATIONAL AIRPORT, AK, United States (PAJN) 58-21N 134-34W 8M
Jun 17, 2019 - 12:53 AM EDT / 2019.06.17 0453 UTC
Wind: from the E (100 degrees) at 12 MPH (10 KT):0
Visibility: 10 mile(s):0
Sky conditions: overcast
Weather: light rain
Precipitation last hour: 0.02 inches
Temperature: 55.0 F (12.8 C)
Dew Point: 54.0 F (12.2 C)
Relative Humidity: 96%
Pressure (altimeter): 29.89 in. Hg (1012 hPa)
ob: PAJN 170453Z 10010KT 10SM -RA FEW005 SCT024 OVC048 13/12 A2989 RMK AO2 SLP121 VIS LWR E-S P0002 T01280122
cycle: 5

Station Type Date Time Source
PAJN TAF 2019/06/17 04:12 UTC NOAA

TAF
AMD PAJN 170411Z 1704/1724 09012KT P6SM -RA FEW004 BKN040 OVC070
FM170600 11009KT 6SM -RA BKN025 OVC035

Example: see airport list